sensor_id;sensor_type;location;lat;lon;timestamp;pressure;altitude;pressure_sealevel;temperature;humidity
27984;BME280;15317;50.360;8.726;2023-05-19T00:03:20;100263.41;;;8.64;86.52
27984;BME280;15317;50.360;8.726;2023-05-19T00:08:24;100255.41;;;8.62;86.37
27984;BME280;15317;50.360;8.726;2023-05-19T00:13:30;100265.13;;;8.65;87.00
27984;BME280;15317;50.360;8.726;2023-05-19T00:18:33;100261.66;;;8.63;87.35
27984;BME280;15317;50.360;8.726;2023-05-19T00:23:37;100258.97;;;8.63;85.93
27984;BME280;15317;50.360;8.726;2023-05-19T00:28:42;100257.34;;;8.60;85.90
27984;BME280;15317;50.360;8.726;2023-05-19T00:33:45;100259.94;;;8.62;86.62
27984;BME280;15317;50.360;8.726;2023-05-19T00:38:48;100251.00;;;8.50;88.35
27984;BME280;15317;50.360;8.726;2023-05-19T00:43:54;100250.16;;;8.50;87.81
27984;BME280;15317;50.360;8.726;2023-05-19T00:48:57;100235.41;;;8.43;88.41
27984;BME280;15317;50.360;8.726;2023-05-19T00:54:00;100235.91;;;8.37;89.98
27984;BME280;15317;50.360;8.726;2023-05-19T00:59:05;100241.56;;;8.33;88.52
27984;BME280;15317;50.360;8.726;2023-05-19T01:04:09;100239.84;;;8.32;89.48
27984;BME280;15317;50.360;8.726;2023-05-19T01:09:18;100232.72;;;8.20;91.68
27984;BME280;15317;50.360;8.726;2023-05-19T01:14:23;100228.91;;;8.23;89.63
27984;BME280;15317;50.360;8.726;2023-05-19T01:19:39;100221.53;;;8.14;92.40
27984;BME280;15317;50.360;8.726;2023-05-19T01:25:13;100216.25;;;8.23;89.24
27984;BME280;15317;50.360;8.726;2023-05-19T01:30:28;100221.66;;;8.23;89.82
27984;BME280;15317;50.360;8.726;2023-05-19T01:35:34;100230.53;;;8.14;90.82
27984;BME280;15317;50.360;8.726;2023-05-19T01:40:39;100228.31;;;8.08;91.33
27984;BME280;15317;50.360;8.726;2023-05-19T01:45:45;100233.25;;;8.03;91.92
27984;BME280;15317;50.360;8.726;2023-05-19T01:50:49;100241.16;;;7.84;94.64
27984;BME280;15317;50.360;8.726;2023-05-19T01:55:53;100243.22;;;7.91;92.36
27984;BME280;15317;50.360;8.726;2023-05-19T02:01:02;100240.16;;;7.85;93.88
27984;BME280;15317;50.360;8.726;2023-05-19T02:06:19;100243.34;;;7.79;94.53
27984;BME280;15317;50.360;8.726;2023-05-19T02:11:30;100236.38;;;7.76;93.58
27984;BME280;15317;50.360;8.726;2023-05-19T02:16:40;100236.72;;;7.72;96.33
27984;BME280;15317;50.360;8.726;2023-05-19T02:21:47;100236.38;;;7.76;94.70
27984;BME280;15317;50.360;8.726;2023-05-19T02:26:51;100232.81;;;7.76;95.30
27984;BME280;15317;50.360;8.726;2023-05-19T02:31:56;100238.56;;;7.82;94.93
27984;BME280;15317;50.360;8.726;2023-05-19T02:36:59;100234.75;;;7.85;93.54
27984;BME280;15317;50.360;8.726;2023-05-19T02:42:03;100224.78;;;7.85;94.51
27984;BME280;15317;50.360;8.726;2023-05-19T02:47:08;100231.56;;;7.91;92.72
27984;BME280;15317;50.360;8.726;2023-05-19T02:52:11;100222.44;;;7.92;93.11
27984;BME280;15317;50.360;8.726;2023-05-19T02:57:15;100225.91;;;7.83;94.17
27984;BME280;15317;50.360;8.726;2023-05-19T03:02:19;100215.56;;;7.88;92.27
27984;BME280;15317;50.360;8.726;2023-05-19T03:07:23;100219.75;;;7.81;93.36
27984;BME280;15317;50.360;8.726;2023-05-19T03:12:26;100214.84;;;7.75;93.91
27984;BME280;15317;50.360;8.726;2023-05-19T03:17:30;100218.81;;;7.71;94.50
27984;BME280;15317;50.360;8.726;2023-05-19T03:22:35;100219.78;;;7.59;96.04
27984;BME280;15317;50.360;8.726;2023-05-19T03:27:38;100219.78;;;7.47;95.37
27984;BME280;15317;50.360;8.726;2023-05-19T03:32:43;100227.88;;;7.36;98.01
27984;BME280;15317;50.360;8.726;2023-05-19T03:37:46;100234.50;;;7.32;99.02
27984;BME280;15317;50.360;8.726;2023-05-19T03:42:50;100232.91;;;7.41;98.00
27984;BME280;15317;50.360;8.726;2023-05-19T03:47:56;100235.50;;;7.42;97.91
27984;BME280;15317;50.360;8.726;2023-05-19T03:53:00;100231.31;;;7.38;98.17
27984;BME280;15317;50.360;8.726;2023-05-19T03:58:03;100233.78;;;7.41;97.26
27984;BME280;15317;50.360;8.726;2023-05-19T04:03:09;100226.16;;;7.46;97.30
27984;BME280;15317;50.360;8.726;2023-05-19T04:08:12;100220.25;;;7.52;96.92
27984;BME280;15317;50.360;8.726;2023-05-19T04:13:16;100230.84;;;7.56;97.14
27984;BME280;15317;50.360;8.726;2023-05-19T04:18:20;100232.31;;;7.60;97.06
27984;BME280;15317;50.360;8.726;2023-05-19T04:23:23;100229.25;;;7.75;94.76
27984;BME280;15317;50.360;8.726;2023-05-19T04:28:27;100223.72;;;7.77;95.51
27984;BME280;15317;50.360;8.726;2023-05-19T04:33:32;100230.59;;;7.81;96.75
27984;BME280;15317;50.360;8.726;2023-05-19T04:38:35;100232.03;;;7.85;94.57
27984;BME280;15317;50.360;8.726;2023-05-19T04:43:41;100237.69;;;7.93;94.21
27984;BME280;15317;50.360;8.726;2023-05-19T04:48:47;100237.69;;;7.93;94.26
27984;BME280;15317;50.360;8.726;2023-05-19T04:53:51;100245.31;;;7.99;94.09
27984;BME280;15317;50.360;8.726;2023-05-19T04:58:55;100256.38;;;8.07;93.57
27984;BME280;15317;50.360;8.726;2023-05-19T05:03:59;100248.38;;;8.17;92.72
27984;BME280;15317;50.360;8.726;2023-05-19T05:09:03;100241.59;;;8.22;92.37
27984;BME280;15317;50.360;8.726;2023-05-19T05:14:07;100242.06;;;8.27;94.29
27984;BME280;15317;50.360;8.726;2023-05-19T05:19:12;100238.63;;;8.37;92.90
27984;BME280;15317;50.360;8.726;2023-05-19T05:24:16;100241.03;;;8.51;91.36
27984;BME280;15317;50.360;8.726;2023-05-19T05:29:19;100246.63;;;8.70;90.50
27984;BME280;15317;50.360;8.726;2023-05-19T05:34:24;100239.91;;;8.85;89.88
27984;BME280;15317;50.360;8.726;2023-05-19T05:39:27;100246.53;;;8.92;91.20
27984;BME280;15317;50.360;8.726;2023-05-19T05:44:31;100239.31;;;9.02;89.59
27984;BME280;15317;50.360;8.726;2023-05-19T05:49:38;100238.00;;;9.18;89.95
27984;BME280;15317;50.360;8.726;2023-05-19T05:54:43;100233.66;;;9.26;90.43
27984;BME280;15317;50.360;8.726;2023-05-19T05:59:47;100237.78;;;9.51;87.30
27984;BME280;15317;50.360;8.726;2023-05-19T06:04:52;100235.88;;;9.72;87.61
27984;BME280;15317;50.360;8.726;2023-05-19T06:09:56;100239.94;;;9.97;87.10
27984;BME280;15317;50.360;8.726;2023-05-19T06:15:01;100250.94;;;10.26;84.36
27984;BME280;15317;50.360;8.726;2023-05-19T06:20:07;100246.69;;;10.72;85.25
27984;BME280;15317;50.360;8.726;2023-05-19T06:25:11;100244.88;;;11.67;79.14
27984;BME280;15317;50.360;8.726;2023-05-19T06:30:14;100245.06;;;12.47;73.07
27984;BME280;15317;50.360;8.726;2023-05-19T06:35:19;100249.72;;;13.43;69.93
27984;BME280;15317;50.360;8.726;2023-05-19T06:40:22;100246.34;;;14.09;66.90
27984;BME280;15317;50.360;8.726;2023-05-19T06:45:25;100244.88;;;14.31;66.33
27984;BME280;15317;50.360;8.726;2023-05-19T06:50:30;100247.41;;;14.67;63.58
27984;BME280;15317;50.360;8.726;2023-05-19T06:55:34;100250.72;;;15.67;63.87
27984;BME280;15317;50.360;8.726;2023-05-19T07:00:51;100255.06;;;16.01;61.02
27984;BME280;15317;50.360;8.726;2023-05-19T07:05:56;100255.25;;;16.77;58.98
27984;BME280;15317;50.360;8.726;2023-05-19T07:10:59;100247.09;;;16.92;56.45
27984;BME280;15317;50.360;8.726;2023-05-19T07:16:03;100225.28;;;17.13;56.17
27984;BME280;15317;50.360;8.726;2023-05-19T07:21:08;100236.22;;;17.21;55.70
27984;BME280;15317;50.360;8.726;2023-05-19T07:26:11;100237.56;;;17.03;52.36
27984;BME280;15317;50.360;8.726;2023-05-19T07:31:15;100232.56;;;16.83;55.82
27984;BME280;15317;50.360;8.726;2023-05-19T07:36:20;100227.09;;;16.83;53.65
27984;BME280;15317;50.360;8.726;2023-05-19T07:41:23;100219.00;;;18.38;49.99
27984;BME280;15317;50.360;8.726;2023-05-19T07:46:27;100212.41;;;18.54;49.28
27984;BME280;15317;50.360;8.726;2023-05-19T07:51:31;100198.38;;;18.85;51.32
27984;BME280;15317;50.360;8.726;2023-05-19T07:56:34;100192.25;;;17.44;49.70
27984;BME280;15317;50.360;8.726;2023-05-19T08:01:37;100206.44;;;18.50;50.71
27984;BME280;15317;50.360;8.726;2023-05-19T08:06:42;100193.34;;;19.10;51.80
27984;BME280;15317;50.360;8.726;2023-05-19T08:11:45;100205.66;;;19.91;48.89
27984;BME280;15317;50.360;8.726;2023-05-19T08:16:49;100199.22;;;18.64;48.00
27984;BME280;15317;50.360;8.726;2023-05-19T08:21:53;100196.59;;;19.69;49.45
27984;BME280;15317;50.360;8.726;2023-05-19T08:26:57;100189.03;;;20.66;48.27
27984;BME280;15317;50.360;8.726;2023-05-19T08:32:00;100192.28;;;20.89;45.60
27984;BME280;15317;50.360;8.726;2023-05-19T08:37:05;100177.03;;;21.46;45.56
27984;BME280;15317;50.360;8.726;2023-05-19T08:42:08;100174.66;;;21.83;45.40
27984;BME280;15317;50.360;8.726;2023-05-19T08:47:12;100171.72;;;21.38;39.22
27984;BME280;15317;50.360;8.726;2023-05-19T08:52:26;100177.19;;;21.84;40.18
27984;BME280;15317;50.360;8.726;2023-05-19T08:57:33;100171.72;;;22.80;42.60
27984;BME280;15317;50.360;8.726;2023-05-19T09:02:37;100159.72;;;22.10;41.35
27984;BME280;15317;50.360;8.726;2023-05-19T09:08:02;100157.88;;;22.80;37.67
27984;BME280;15317;50.360;8.726;2023-05-19T09:13:06;100162.25;;;22.94;41.58
27984;BME280;15317;50.360;8.726;2023-05-19T09:18:10;100161.63;;;23.23;35.14
27984;BME280;15317;50.360;8.726;2023-05-19T09:23:16;100160.22;;;23.08;34.78
27984;BME280;15317;50.360;8.726;2023-05-19T09:28:23;100146.78;;;22.80;37.83
27984;BME280;15317;50.360;8.726;2023-05-19T09:33:27;100146.06;;;22.98;35.57
27984;BME280;15317;50.360;8.726;2023-05-19T09:38:33;100148.47;;;23.62;40.99
27984;BME280;15317;50.360;8.726;2023-05-19T09:43:37;100145.81;;;23.74;37.07
27984;BME280;15317;50.360;8.726;2023-05-19T09:48:41;100136.44;;;22.62;37.08
27984;BME280;15317;50.360;8.726;2023-05-19T09:53:46;100137.19;;;22.82;38.44
27984;BME280;15317;50.360;8.726;2023-05-19T09:58:50;100120.38;;;22.84;37.52
27984;BME280;15317;50.360;8.726;2023-05-19T10:03:54;100113.34;;;22.43;37.07
27984;BME280;15317;50.360;8.726;2023-05-19T10:08:59;100115.91;;;23.33;36.58
27984;BME280;15317;50.360;8.726;2023-05-19T10:14:04;100113.97;;;24.49;37.13
27984;BME280;15317;50.360;8.726;2023-05-19T10:19:07;100105.59;;;23.83;39.32
27984;BME280;15317;50.360;8.726;2023-05-19T10:24:12;100095.16;;;22.92;36.72
27984;BME280;15317;50.360;8.726;2023-05-19T10:29:20;100093.41;;;24.50;35.54
27984;BME280;15317;50.360;8.726;2023-05-19T10:34:43;100103.69;;;24.01;35.68
27984;BME280;15317;50.360;8.726;2023-05-19T10:39:52;100094.63;;;24.06;36.93
27984;BME280;15317;50.360;8.726;2023-05-19T10:45:02;100082.25;;;24.09;33.66
27984;BME280;15317;50.360;8.726;2023-05-19T10:50:07;100086.00;;;22.22;35.67
27984;BME280;15317;50.360;8.726;2023-05-19T10:55:13;100083.38;;;22.34;34.54
27984;BME280;15317;50.360;8.726;2023-05-19T11:00:26;100089.34;;;23.86;35.12
27984;BME280;15317;50.360;8.726;2023-05-19T11:05:29;100075.25;;;24.18;36.83
27984;BME280;15317;50.360;8.726;2023-05-19T11:10:34;100081.47;;;23.83;36.46
27984;BME280;15317;50.360;8.726;2023-05-19T11:15:41;100067.59;;;22.41;35.16
27984;BME280;15317;50.360;8.726;2023-05-19T11:20:54;100062.38;;;23.57;42.96
27984;BME280;15317;50.360;8.726;2023-05-19T11:26:01;100068.41;;;24.50;35.49
27984;BME280;15317;50.360;8.726;2023-05-19T11:31:05;100059.59;;;22.58;35.17
27984;BME280;15317;50.360;8.726;2023-05-19T11:36:11;100061.69;;;22.62;36.11
27984;BME280;15317;50.360;8.726;2023-05-19T11:41:16;100053.53;;;22.42;38.10
27984;BME280;15317;50.360;8.726;2023-05-19T11:46:21;100049.19;;;23.28;35.76
27984;BME280;15317;50.360;8.726;2023-05-19T11:51:25;100052.22;;;24.17;36.28
27984;BME280;15317;50.360;8.726;2023-05-19T11:56:38;100042.41;;;23.05;35.79
27984;BME280;15317;50.360;8.726;2023-05-19T12:01:41;100056.13;;;23.80;35.15
27984;BME280;15317;50.360;8.726;2023-05-19T12:06:47;100041.34;;;23.24;36.64
27984;BME280;15317;50.360;8.726;2023-05-19T12:11:53;100040.00;;;23.88;35.19
27984;BME280;15317;50.360;8.726;2023-05-19T12:16:56;100038.16;;;24.00;36.81
27984;BME280;15317;50.360;8.726;2023-05-19T12:22:00;100037.41;;;24.53;36.95
27984;BME280;15317;50.360;8.726;2023-05-19T12:27:09;100033.94;;;23.61;36.49
27984;BME280;15317;50.360;8.726;2023-05-19T12:32:14;100029.81;;;24.00;34.95
27984;BME280;15317;50.360;8.726;2023-05-19T12:37:17;100024.25;;;23.28;37.54
27984;BME280;15317;50.360;8.726;2023-05-19T12:42:24;100021.50;;;22.53;38.54
27984;BME280;15317;50.360;8.726;2023-05-19T12:47:32;100004.59;;;21.54;40.60
27984;BME280;15317;50.360;8.726;2023-05-19T12:52:41;100018.47;;;21.41;39.69
27984;BME280;15317;50.360;8.726;2023-05-19T12:57:48;100002.69;;;21.54;41.20
27984;BME280;15317;50.360;8.726;2023-05-19T13:02:57;99998.25;;;21.40;40.52
27984;BME280;15317;50.360;8.726;2023-05-19T13:08:04;99997.38;;;21.46;43.72
27984;BME280;15317;50.360;8.726;2023-05-19T13:13:09;100000.25;;;20.94;42.63
27984;BME280;15317;50.360;8.726;2023-05-19T13:18:13;99992.22;;;20.72;43.09
27984;BME280;15317;50.360;8.726;2023-05-19T13:23:16;99990.28;;;20.86;43.92
27984;BME280;15317;50.360;8.726;2023-05-19T13:28:20;99990.47;;;20.19;43.45
27984;BME280;15317;50.360;8.726;2023-05-19T13:33:24;99984.06;;;20.05;43.95
27984;BME280;15317;50.360;8.726;2023-05-19T13:38:27;99983.50;;;20.62;46.14
27984;BME280;15317;50.360;8.726;2023-05-19T13:43:32;99985.19;;;20.83;43.76
27984;BME280;15317;50.360;8.726;2023-05-19T13:48:35;99976.69;;;20.84;45.71
27984;BME280;15317;50.360;8.726;2023-05-19T13:53:38;99984.75;;;20.99;45.62
27984;BME280;15317;50.360;8.726;2023-05-19T13:58:43;99983.06;;;20.92;44.41
27984;BME280;15317;50.360;8.726;2023-05-19T14:03:46;99982.66;;;21.59;43.75
27984;BME280;15317;50.360;8.726;2023-05-19T14:08:50;99978.66;;;21.93;42.48
27984;BME280;15317;50.360;8.726;2023-05-19T14:13:55;99975.84;;;22.37;43.12
27984;BME280;15317;50.360;8.726;2023-05-19T14:18:58;99986.16;;;23.05;42.62
27984;BME280;15317;50.360;8.726;2023-05-19T14:24:02;99977.81;;;22.30;40.92
27984;BME280;15317;50.360;8.726;2023-05-19T14:29:06;99974.59;;;22.02;40.78
27984;BME280;15317;50.360;8.726;2023-05-19T14:34:09;99966.53;;;21.94;45.55
27984;BME280;15317;50.360;8.726;2023-05-19T14:39:13;99966.09;;;22.03;44.00
27984;BME280;15317;50.360;8.726;2023-05-19T14:44:17;99976.03;;;21.66;41.44
27984;BME280;15317;50.360;8.726;2023-05-19T14:49:21;99978.31;;;21.25;42.85
27984;BME280;15317;50.360;8.726;2023-05-19T14:54:24;99965.22;;;20.87;43.89
27984;BME280;15317;50.360;8.726;2023-05-19T14:59:29;99964.31;;;21.26;42.60
27984;BME280;15317;50.360;8.726;2023-05-19T15:04:32;99953.88;;;21.28;42.95
27984;BME280;15317;50.360;8.726;2023-05-19T15:09:36;99955.91;;;21.97;42.57
27984;BME280;15317;50.360;8.726;2023-05-19T15:14:40;99949.03;;;21.68;42.43
27984;BME280;15317;50.360;8.726;2023-05-19T15:19:43;99949.66;;;21.64;42.44
27984;BME280;15317;50.360;8.726;2023-05-19T15:24:47;99947.22;;;21.49;43.50
27984;BME280;15317;50.360;8.726;2023-05-19T15:29:51;99940.16;;;21.53;41.71
27984;BME280;15317;50.360;8.726;2023-05-19T15:34:54;99942.41;;;21.25;40.51
27984;BME280;15317;50.360;8.726;2023-05-19T15:39:58;99941.09;;;21.34;40.10
27984;BME280;15317;50.360;8.726;2023-05-19T15:45:03;99942.94;;;21.53;42.52
27984;BME280;15317;50.360;8.726;2023-05-19T15:50:07;99942.06;;;21.59;39.86
27984;BME280;15317;50.360;8.726;2023-05-19T15:55:10;99954.47;;;21.37;42.10
27984;BME280;15317;50.360;8.726;2023-05-19T16:00:15;99944.81;;;20.88;40.45
27984;BME280;15317;50.360;8.726;2023-05-19T16:05:18;99946.31;;;20.19;43.55
27984;BME280;15317;50.360;8.726;2023-05-19T16:10:21;99942.91;;;20.03;40.02
27984;BME280;15317;50.360;8.726;2023-05-19T16:15:26;99939.84;;;19.72;40.90
27984;BME280;15317;50.360;8.726;2023-05-19T16:20:29;99941.69;;;20.45;39.65
27984;BME280;15317;50.360;8.726;2023-05-19T16:25:32;99935.53;;;20.57;40.09
27984;BME280;15317;50.360;8.726;2023-05-19T16:30:37;99930.41;;;20.40;39.87
27984;BME280;15317;50.360;8.726;2023-05-19T16:35:40;99935.66;;;20.88;41.12
27984;BME280;15317;50.360;8.726;2023-05-19T16:40:44;99937.63;;;20.61;39.63
27984;BME280;15317;50.360;8.726;2023-05-19T16:45:48;99939.78;;;20.46;39.85
27984;BME280;15317;50.360;8.726;2023-05-19T16:50:51;99925.28;;;19.85;42.53
27984;BME280;15317;50.360;8.726;2023-05-19T16:55:55;99917.59;;;19.67;42.73
27984;BME280;15317;50.360;8.726;2023-05-19T17:01:01;99923.03;;;19.47;43.08
27984;BME280;15317;50.360;8.726;2023-05-19T17:06:05;99923.28;;;19.59;44.60
27984;BME280;15317;50.360;8.726;2023-05-19T17:11:08;99929.56;;;19.40;42.72
27984;BME280;15317;50.360;8.726;2023-05-19T17:16:12;99931.81;;;19.23;43.15
27984;BME280;15317;50.360;8.726;2023-05-19T17:21:15;99931.53;;;19.11;42.84
27984;BME280;15317;50.360;8.726;2023-05-19T17:26:19;99934.56;;;18.82;43.71
27984;BME280;15317;50.360;8.726;2023-05-19T17:31:24;99946.63;;;18.81;44.96
27984;BME280;15317;50.360;8.726;2023-05-19T17:36:27;99944.44;;;18.21;43.14
27984;BME280;15317;50.360;8.726;2023-05-19T17:41:31;99952.75;;;18.06;44.39
27984;BME280;15317;50.360;8.726;2023-05-19T17:46:35;99946.94;;;17.94;46.02
27984;BME280;15317;50.360;8.726;2023-05-19T17:51:40;99940.59;;;17.58;44.93
27984;BME280;15317;50.360;8.726;2023-05-19T17:56:44;99940.53;;;17.51;45.05
27984;BME280;15317;50.360;8.726;2023-05-19T18:01:49;99942.72;;;17.26;46.86
27984;BME280;15317;50.360;8.726;2023-05-19T18:06:53;99943.22;;;17.15;43.83
27984;BME280;15317;50.360;8.726;2023-05-19T18:11:57;99941.53;;;17.14;46.69
27984;BME280;15317;50.360;8.726;2023-05-19T18:17:04;99941.94;;;16.96;44.88
27984;BME280;15317;50.360;8.726;2023-05-19T18:22:07;99938.34;;;16.81;47.05
27984;BME280;15317;50.360;8.726;2023-05-19T18:27:13;99957.69;;;16.65;46.66
27984;BME280;15317;50.360;8.726;2023-05-19T18:32:18;99953.75;;;16.45;46.94
27984;BME280;15317;50.360;8.726;2023-05-19T18:37:21;99957.44;;;16.23;48.52
27984;BME280;15317;50.360;8.726;2023-05-19T18:42:24;99949.84;;;16.10;50.09
27984;BME280;15317;50.360;8.726;2023-05-19T18:47:28;99944.34;;;15.87;49.46
27984;BME280;15317;50.360;8.726;2023-05-19T18:52:32;99946.47;;;15.77;49.87
27984;BME280;15317;50.360;8.726;2023-05-19T18:57:35;99946.78;;;15.59;51.82
27984;BME280;15317;50.360;8.726;2023-05-19T19:02:40;99943.22;;;15.42;51.81
27984;BME280;15317;50.360;8.726;2023-05-19T19:07:44;99952.03;;;15.30;51.10
27984;BME280;15317;50.360;8.726;2023-05-19T19:12:47;99951.31;;;15.05;53.23
27984;BME280;15317;50.360;8.726;2023-05-19T19:17:51;99951.56;;;14.87;54.10
27984;BME280;15317;50.360;8.726;2023-05-19T19:22:54;99969.53;;;14.74;53.44
27984;BME280;15317;50.360;8.726;2023-05-19T19:27:59;99971.28;;;14.67;54.97
27984;BME280;15317;50.360;8.726;2023-05-19T19:33:04;99969.88;;;14.62;54.98
27984;BME280;15317;50.360;8.726;2023-05-19T19:38:07;99975.38;;;14.62;55.17
27984;BME280;15317;50.360;8.726;2023-05-19T19:43:11;99974.66;;;14.69;56.43
27984;BME280;15317;50.360;8.726;2023-05-19T19:48:15;99973.09;;;14.74;55.17
27984;BME280;15317;50.360;8.726;2023-05-19T19:53:19;99969.34;;;14.75;55.12
27984;BME280;15317;50.360;8.726;2023-05-19T19:58:22;99972.06;;;14.75;55.21
27984;BME280;15317;50.360;8.726;2023-05-19T20:03:27;99962.00;;;14.76;55.09
27984;BME280;15317;50.360;8.726;2023-05-19T20:08:31;99967.47;;;14.76;55.63
27984;BME280;15317;50.360;8.726;2023-05-19T20:13:34;99965.59;;;14.76;55.38
27984;BME280;15317;50.360;8.726;2023-05-19T20:18:39;99964.75;;;14.68;55.61
27984;BME280;15317;50.360;8.726;2023-05-19T20:23:42;99965.28;;;14.55;56.48
27984;BME280;15317;50.360;8.726;2023-05-19T20:28:45;99967.53;;;14.43;56.43
27984;BME280;15317;50.360;8.726;2023-05-19T20:33:49;99975.03;;;14.17;59.29
27984;BME280;15317;50.360;8.726;2023-05-19T20:38:53;99966.84;;;14.09;57.25
27984;BME280;15317;50.360;8.726;2023-05-19T20:43:56;99965.16;;;13.92;59.09
27984;BME280;15317;50.360;8.726;2023-05-19T20:49:00;99963.06;;;13.69;61.25
27984;BME280;15317;50.360;8.726;2023-05-19T20:54:03;99967.16;;;13.57;62.66
27984;BME280;15317;50.360;8.726;2023-05-19T20:59:08;99959.59;;;13.43;62.52
27984;BME280;15317;50.360;8.726;2023-05-19T21:04:12;99968.47;;;13.37;62.87
27984;BME280;15317;50.360;8.726;2023-05-19T21:09:16;99965.34;;;13.32;63.07
27984;BME280;15317;50.360;8.726;2023-05-19T21:14:19;99962.16;;;13.44;61.34
27984;BME280;15317;50.360;8.726;2023-05-19T21:19:24;99964.72;;;13.46;62.90
27984;BME280;15317;50.360;8.726;2023-05-19T21:24:27;99978.00;;;13.41;63.36
27984;BME280;15317;50.360;8.726;2023-05-19T21:29:32;99980.59;;;13.42;63.88
27984;BME280;15317;50.360;8.726;2023-05-19T21:34:37;99973.91;;;13.45;63.89
27984;BME280;15317;50.360;8.726;2023-05-19T21:39:40;99968.13;;;13.48;62.52
27984;BME280;15317;50.360;8.726;2023-05-19T21:44:43;99970.53;;;13.43;64.55
27984;BME280;15317;50.360;8.726;2023-05-19T21:49:48;99963.69;;;13.47;64.10
27984;BME280;15317;50.360;8.726;2023-05-19T21:54:52;99968.28;;;13.38;63.88
27984;BME280;15317;50.360;8.726;2023-05-19T21:59:57;99971.19;;;13.37;63.05
27984;BME280;15317;50.360;8.726;2023-05-19T22:05:02;99967.75;;;13.35;63.56
27984;BME280;15317;50.360;8.726;2023-05-19T22:10:05;99972.19;;;13.28;64.45
27984;BME280;15317;50.360;8.726;2023-05-19T22:15:10;99963.28;;;13.26;65.28
27984;BME280;15317;50.360;8.726;2023-05-19T22:20:15;99959.56;;;13.27;64.68
27984;BME280;15317;50.360;8.726;2023-05-19T22:25:19;99952.38;;;13.26;65.48
27984;BME280;15317;50.360;8.726;2023-05-19T22:30:22;99959.34;;;13.20;65.33
27984;BME280;15317;50.360;8.726;2023-05-19T22:35:27;99958.84;;;13.17;66.91
27984;BME280;15317;50.360;8.726;2023-05-19T22:40:30;99958.59;;;13.10;68.16
27984;BME280;15317;50.360;8.726;2023-05-19T22:45:34;99952.00;;;13.13;68.53
27984;BME280;15317;50.360;8.726;2023-05-19T22:50:39;99954.19;;;13.09;69.00
27984;BME280;15317;50.360;8.726;2023-05-19T22:55:42;99946.31;;;13.06;70.12
27984;BME280;15317;50.360;8.726;2023-05-19T23:00:46;99949.19;;;13.04;70.38
27984;BME280;15317;50.360;8.726;2023-05-19T23:05:50;99942.22;;;13.10;70.95
27984;BME280;15317;50.360;8.726;2023-05-19T23:10:58;99941.22;;;13.11;72.12
27984;BME280;15317;50.360;8.726;2023-05-19T23:16:02;99950.59;;;13.09;73.19
27984;BME280;15317;50.360;8.726;2023-05-19T23:21:07;99944.28;;;13.08;72.77
27984;BME280;15317;50.360;8.726;2023-05-19T23:26:10;99936.78;;;13.10;73.23
27984;BME280;15317;50.360;8.726;2023-05-19T23:31:14;99924.00;;;13.02;74.79
27984;BME280;15317;50.360;8.726;2023-05-19T23:36:19;99929.09;;;13.05;74.77
27984;BME280;15317;50.360;8.726;2023-05-19T23:41:22;99930.09;;;12.96;76.10
27984;BME280;15317;50.360;8.726;2023-05-19T23:46:26;99926.69;;;12.94;76.73
27984;BME280;15317;50.360;8.726;2023-05-19T23:51:31;99917.69;;;13.02;76.66
27984;BME280;15317;50.360;8.726;2023-05-19T23:56:35;99928.91;;;12.99;77.12
